Kahuta Weather



Kahuta's Current Weather

Temprature 9.73o mist

mist

Rain: 0 %

Min Temprature9.44o
Max Temprature10o
Humidity100
Wind Speed3.1 m/h
Sun Rise07:02:29
Sun Set16:59:20
Current Time: 14-Dec-2019 08:14:12
Lat/Lon: 33.59, 73.39




Kahuta's Geo Location



Kahuta's Weather Forecast

Time Overall Temp Min Temp Max Temp Humidity Wind Speed Rain
14-Dec-2019 (Sat)
11:00:00 light rain 13.050 12.820 13.050 69 2.05 m/h 262 %
14:00:00 moderate rain 13.600 13.430 13.600 68 4.59 m/h 431 %
17:00:00 light rain 11.360 11.240 11.360 77 0.96 m/h 281 %
20:00:00 light rain 10.480 10.420 10.480 76 2.34 m/h 44 %
23:00:00 overcast clouds 9.370 9.370 9.370 76 2.39 m/h 0 %
15-Dec-2019 (Sun)
02:00:00 broken clouds 8.700 8.700 8.700 72 2.31 m/h 0 %
05:00:00 broken clouds 8.040 8.040 8.040 69 2.42 m/h 0 %
08:00:00 few clouds 8.420 8.420 8.420 65 2.07 m/h 0 %
11:00:00 clear sky 14.300 14.300 14.300 42 1.23 m/h 0 %
14:00:00 clear sky 16.070 16.070 16.070 39 1.89 m/h 0 %
17:00:00 clear sky 12.130 12.130 12.130 55 1.67 m/h 0 %
20:00:00 clear sky 10.440 10.440 10.440 60 1.67 m/h 0 %
23:00:00 clear sky 8.880 8.880 8.880 49 2.99 m/h 0 %
16-Dec-2019 (Mon)
02:00:00 clear sky 7.890 7.890 7.890 45 2.9 m/h 0 %
05:00:00 clear sky 7.030 7.030 7.030 48 2.97 m/h 0 %
08:00:00 clear sky 7.680 7.680 7.680 49 2.64 m/h 0 %
11:00:00 clear sky 14.700 14.700 14.700 30 1.33 m/h 0 %
14:00:00 clear sky 17.050 17.050 17.050 27 1.86 m/h 0 %
17:00:00 clear sky 12.220 12.220 12.220 40 1.9 m/h 0 %
20:00:00 clear sky 9.580 9.580 9.580 41 3.09 m/h 0 %
23:00:00 clear sky 7.970 7.970 7.970 34 3.62 m/h 0 %
17-Dec-2019 (Tue)
02:00:00 clear sky 7.110 7.110 7.110 39 3.53 m/h 0 %
05:00:00 clear sky 6.430 6.430 6.430 37 3.75 m/h 0 %
08:00:00 clear sky 6.680 6.680 6.680 36 3.36 m/h 0 %
11:00:00 clear sky 14.730 14.730 14.730 22 1.98 m/h 0 %
14:00:00 clear sky 17.790 17.790 17.790 20 2.4 m/h 0 %
17:00:00 clear sky 11.910 11.910 11.910 33 1.71 m/h 0 %
20:00:00 overcast clouds 9.190 9.190 9.190 32 3.58 m/h 0 %
23:00:00 overcast clouds 7.890 7.890 7.890 30 3.21 m/h 0 %
18-Dec-2019 (Wed)
02:00:00 overcast clouds 7.820 7.820 7.820 32 2.97 m/h 0 %
05:00:00 overcast clouds 6.990 6.990 6.990 31 3.24 m/h 0 %
08:00:00 overcast clouds 7.650 7.650 7.650 32 2.64 m/h 0 %
11:00:00 overcast clouds 14.500 14.500 14.500 21 1.73 m/h 0 %
14:00:00 overcast clouds 16.700 16.700 16.700 21 1.61 m/h 0 %
17:00:00 overcast clouds 11.360 11.360 11.360 33 0.48 m/h 0 %
20:00:00 broken clouds 10.020 10.020 10.020 35 2.18 m/h 0 %
23:00:00 broken clouds 9.240 9.240 9.240 34 1.8 m/h 0 %
19-Dec-2019 (Thu)
02:00:00 overcast clouds 9.460 9.460 9.460 31 2.55 m/h 0 %
05:00:00 overcast clouds 8.520 8.520 8.520 34 2.34 m/h 0 %
08:00:00 few clouds 8.550 8.550 8.550 38 2.19 m/h 0 %

Famous Cities (61)